M.v.golden Bull — VRKC7 — position and weather

sailwx.info

Track history (hours):
 
Tides and Currents Weather Stations Pressure Air Temp Water Temp Dewpoint Dewpoint Depression Visibility Wind Speed Wind Dir Waves Ship Positions

M.v.golden Bull

Last reported at 2018-Apr-06 00:00 UTC. Time now 2018-Apr-20 14:12 UTC.
Position N 00°11' W 050°46'.
Warning: this ship's position is 14 days out of date.

Length 224 m; draft 11.6 m.

Type: Ship. MMSI: 477700600.

Date/timePositionNaut miles runAvg speedWind from/ knotsBaromVisibWave heightAir tempDewpointWater temp
2018-Apr-06 00:00N 00°11' W 050°46'715.0
2018-Apr-05 23:30N 00°10' W 050°53'612.9
2018-Apr-05 23:01N 00°06' W 050°58'4 8.1
2018-Apr-05 22:31N 00°02' W 050°59'0 0.6
2018-Apr-05 22:00N 00°02' W 050°59'0 0.1
2018-Apr-05 21:30N 00°02' W 050°59'0 0.0
2018-Apr-05 20:52N 00°02' W 050°59'0 0.1
2018-Apr-05 20:30N 00°02' W 050°59'0 0.1
2018-Apr-05 19:54N 00°02' W 050°59'1 1.6
2018-Apr-05 19:30N 00°02' W 050°60'2 5.1
2018-Apr-05 19:00S 00°01' W 050°60'714.5
2018-Apr-05 18:30S 00°08' W 051°01'31112.2
2018-Apr-04 17:01S 01°36' W 055°60'013.6
2018-Apr-04 17:00S 01°36' W 055°60'712.3
2018-Apr-04 16:28S 01°31' W 056°04'612.5
2018-Apr-04 16:00S 01°31' W 056°10'4 8.3
2018-Apr-04 15:30S 01°32' W 056°14'5 9.4
2018-Apr-04 15:00S 01°30' W 056°18'4 8.6
2018-Apr-04 14:31S 01°28' W 056°22'2 4.4
2018-Apr-04 13:59S 01°27' W 056°24'1 1.4
2018-Apr-04 13:30S 01°27' W 056°23'1 1.0
2018-Apr-04 12:58S 01°28' W 056°23'0 0.0
2018-Apr-04 12:28S 01°28' W 056°23'0 0.0
2018-Apr-04 11:55S 01°28' W 056°23'0 0.0
2018-Apr-04 11:28S 01°28' W 056°23'0 0.0
2018-Apr-04 06:34S 01°28' W 056°23'0 0.0
2018-Apr-04 06:28S 01°28' W 056°23'0 0.0
2018-Apr-04 05:58S 01°28' W 056°23'0 0.0
2018-Apr-04 05:28S 01°28' W 056°23'0 0.0
2018-Apr-04 04:58S 01°28' W 056°23'0 0.0
2018-Apr-04 04:29S 01°28' W 056°23'0 0.0
2018-Apr-04 03:58S 01°28' W 056°23'0 0.0
2018-Apr-04 03:28S 01°28' W 056°23'0 0.0
2018-Apr-04 02:58S 01°28' W 056°23'0 0.0
2018-Apr-04 02:28S 01°28' W 056°23'0 0.0
2018-Apr-04 01:58S 01°28' W 056°23'0 0.0
2018-Apr-04 01:28S 01°28' W 056°23'0 0.0
2018-Apr-04 00:58S 01°28' W 056°23'0 0.0
2018-Apr-04 00:28S 01°28' W 056°23'0 0.0
2018-Apr-03 23:58S 01°28' W 056°23'0 0.0
2018-Apr-03 23:28S 01°28' W 056°23'0 0.0
2018-Apr-03 22:59S 01°28' W 056°23'0 0.0
2018-Apr-03 22:25S 01°28' W 056°23'0 0.0
2018-Apr-03 21:55S 01°28' W 056°23'0 0.0
2018-Apr-03 21:28S 01°28' W 056°23'0 0.0
2018-Apr-03 20:58S 01°28' W 056°23'0 0.0
2018-Apr-03 20:28S 01°28' W 056°23'0 0.0
2018-Apr-03 19:58S 01°28' W 056°23'0 0.0
2018-Apr-03 19:25S 01°28' W 056°23'0 0.0
2018-Apr-03 18:58S 01°28' W 056°23'0 0.0
2018-Apr-03 18:22S 01°28' W 056°23'0 0.0
2018-Apr-03 17:58S 01°28' W 056°23'0 0.0
2018-Apr-03 17:22S 01°28' W 056°23'0 0.0
2018-Apr-03 16:55S 01°28' W 056°23'0 0.0
2018-Apr-03 16:28S 01°28' W 056°23'0 0.0
2018-Apr-03 15:58S 01°28' W 056°23'0 0.0
2018-Apr-03 15:25S 01°28' W 056°23'0 0.0
2018-Apr-03 14:54S 01°28' W 056°23'0 0.0
2018-Apr-03 14:27S 01°28' W 056°23'0 0.0
2018-Apr-03 14:00S 01°28' W 056°23'0 0.0
2018-Apr-03 13:06S 01°28' W 056°23'0 0.0
2018-Apr-03 13:00S 01°28' W 056°23'0 0.0
2018-Apr-03 12:24S 01°28' W 056°23'0 0.0
2018-Apr-03 11:58S 01°28' W 056°23'0 0.0
2018-Apr-03 11:28S 01°28' W 056°23'0 0.0
2018-Apr-03 10:58S 01°28' W 056°23'0 0.0
2018-Apr-03 10:25S 01°28' W 056°23'0 0.0
2018-Apr-03 09:56S 01°28' W 056°23'0 0.6
2018-Apr-03 09:30S 01°28' W 056°23'2 3.6
2018-Apr-03 09:00S 01°28' W 056°21'4 8.5
2018-Apr-03 08:30S 01°31' W 056°18'4 8.2
2018-Apr-03 08:00S 01°32' W 056°14'4 7.4
2018-Apr-03 07:30S 01°31' W 056°10'4 8.8
2018-Apr-03 07:00S 01°31' W 056°06'611.7
2018-Apr-03 06:30S 01°34' W 056°01'913.9
2018-Apr-03 05:51S 01°41' W 055°56'290 8.7
2018-Apr-01 20:39S 00°14' W 051°19'216.6
2018-Apr-01 20:30S 00°13' W 051°18'612.2
2018-Apr-01 20:00S 00°09' W 051°13'714.7
2018-Apr-01 19:30S 00°05' W 051°07'1 1.8
2018-Apr-01 18:59S 00°04' W 051°06'0 0.0
2018-Apr-01 18:29S 00°04' W 051°06'0 0.1
2018-Apr-01 17:59S 00°04' W 051°06'1 1.5
2018-Apr-01 17:30S 00°04' W 051°05'2 4.6
2018-Apr-01 17:00S 00°02' W 051°04'4 7.6
2018-Apr-01 16:30N 00°01' W 051°01'5 9.5
2018-Apr-01 16:00N 00°05' W 050°59'510.7
2018-Apr-01 15:30N 00°09' W 050°55'611.7
2018-Apr-01 14:59N 00°10' W 050°50'612.0
2018-Apr-01 14:30N 00°12' W 050°44'711.9
2018-Apr-01 13:57N 00°15' W 050°38'  
Track history (hours):
 
Tides and Currents Weather Stations Pressure Air Temp Water Temp Dewpoint Dewpoint Depression Visibility Wind Speed Wind Dir Waves Ship Positions

M.v.golden Bull

Last reported at 2018-Apr-06 00:00 UTC. Time now 2018-Apr-20 14:12 UTC.
Position N 00°11' W 050°46'.
Warning: this ship's position is 14 days out of date.

Length 224 m; draft 11.6 m.

Type: Ship. MMSI: 477700600.

Date/timePositionNaut miles runAvg speedWind from/ knotsBaromVisibWave heightAir tempDewpointWater temp
2018-Apr-06 00:00N 00°11' W 050°46'715.0
2018-Apr-05 23:30N 00°10' W 050°53'612.9
2018-Apr-05 23:01N 00°06' W 050°58'4 8.1
2018-Apr-05 22:31N 00°02' W 050°59'0 0.6
2018-Apr-05 22:00N 00°02' W 050°59'0 0.1
2018-Apr-05 21:30N 00°02' W 050°59'0 0.0
2018-Apr-05 20:52N 00°02' W 050°59'0 0.1
2018-Apr-05 20:30N 00°02' W 050°59'0 0.1
2018-Apr-05 19:54N 00°02' W 050°59'1 1.6
2018-Apr-05 19:30N 00°02' W 050°60'2 5.1
2018-Apr-05 19:00S 00°01' W 050°60'714.5
2018-Apr-05 18:30S 00°08' W 051°01'31112.2
2018-Apr-04 17:01S 01°36' W 055°60'013.6
2018-Apr-04 17:00S 01°36' W 055°60'712.3
2018-Apr-04 16:28S 01°31' W 056°04'612.5
2018-Apr-04 16:00S 01°31' W 056°10'4 8.3
2018-Apr-04 15:30S 01°32' W 056°14'5 9.4
2018-Apr-04 15:00S 01°30' W 056°18'4 8.6
2018-Apr-04 14:31S 01°28' W 056°22'2 4.4
2018-Apr-04 13:59S 01°27' W 056°24'1 1.4
2018-Apr-04 13:30S 01°27' W 056°23'1 1.0
2018-Apr-04 12:58S 01°28' W 056°23'0 0.0
2018-Apr-04 12:28S 01°28' W 056°23'0 0.0
2018-Apr-04 11:55S 01°28' W 056°23'0 0.0
2018-Apr-04 11:28S 01°28' W 056°23'0 0.0
2018-Apr-04 06:34S 01°28' W 056°23'0 0.0
2018-Apr-04 06:28S 01°28' W 056°23'0 0.0
2018-Apr-04 05:58S 01°28' W 056°23'0 0.0
2018-Apr-04 05:28S 01°28' W 056°23'0 0.0
2018-Apr-04 04:58S 01°28' W 056°23'0 0.0
2018-Apr-04 04:29S 01°28' W 056°23'0 0.0
2018-Apr-04 03:58S 01°28' W 056°23'0 0.0
2018-Apr-04 03:28S 01°28' W 056°23'0 0.0
2018-Apr-04 02:58S 01°28' W 056°23'0 0.0
2018-Apr-04 02:28S 01°28' W 056°23'0 0.0
2018-Apr-04 01:58S 01°28' W 056°23'0 0.0
2018-Apr-04 01:28S 01°28' W 056°23'0 0.0
2018-Apr-04 00:58S 01°28' W 056°23'0 0.0
2018-Apr-04 00:28S 01°28' W 056°23'0 0.0
2018-Apr-03 23:58S 01°28' W 056°23'0 0.0
2018-Apr-03 23:28S 01°28' W 056°23'0 0.0
2018-Apr-03 22:59S 01°28' W 056°23'0 0.0
2018-Apr-03 22:25S 01°28' W 056°23'0 0.0
2018-Apr-03 21:55S 01°28' W 056°23'0 0.0
2018-Apr-03 21:28S 01°28' W 056°23'0 0.0
2018-Apr-03 20:58S 01°28' W 056°23'0 0.0
2018-Apr-03 20:28S 01°28' W 056°23'0 0.0
2018-Apr-03 19:58S 01°28' W 056°23'0 0.0
2018-Apr-03 19:25S 01°28' W 056°23'0 0.0
2018-Apr-03 18:58S 01°28' W 056°23'0 0.0
2018-Apr-03 18:22S 01°28' W 056°23'0 0.0
2018-Apr-03 17:58S 01°28' W 056°23'0 0.0
2018-Apr-03 17:22S 01°28' W 056°23'0 0.0
2018-Apr-03 16:55S 01°28' W 056°23'0 0.0
2018-Apr-03 16:28S 01°28' W 056°23'0 0.0
2018-Apr-03 15:58S 01°28' W 056°23'0 0.0
2018-Apr-03 15:25S 01°28' W 056°23'0 0.0
2018-Apr-03 14:54S 01°28' W 056°23'0 0.0
2018-Apr-03 14:27S 01°28' W 056°23'0 0.0
2018-Apr-03 14:00S 01°28' W 056°23'0 0.0
2018-Apr-03 13:06S 01°28' W 056°23'0 0.0
2018-Apr-03 13:00S 01°28' W 056°23'0 0.0
2018-Apr-03 12:24S 01°28' W 056°23'0 0.0
2018-Apr-03 11:58S 01°28' W 056°23'0 0.0
2018-Apr-03 11:28S 01°28' W 056°23'0 0.0
2018-Apr-03 10:58S 01°28' W 056°23'0 0.0
2018-Apr-03 10:25S 01°28' W 056°23'0 0.0
2018-Apr-03 09:56S 01°28' W 056°23'0 0.6
2018-Apr-03 09:30S 01°28' W 056°23'2 3.6
2018-Apr-03 09:00S 01°28' W 056°21'4 8.5
2018-Apr-03 08:30S 01°31' W 056°18'4 8.2
2018-Apr-03 08:00S 01°32' W 056°14'4 7.4
2018-Apr-03 07:30S 01°31' W 056°10'4 8.8
2018-Apr-03 07:00S 01°31' W 056°06'611.7
2018-Apr-03 06:30S 01°34' W 056°01'913.9
2018-Apr-03 05:51S 01°41' W 055°56'290 8.7
2018-Apr-01 20:39S 00°14' W 051°19'216.6
2018-Apr-01 20:30S 00°13' W 051°18'612.2
2018-Apr-01 20:00S 00°09' W 051°13'714.7
2018-Apr-01 19:30S 00°05' W 051°07'1 1.8
2018-Apr-01 18:59S 00°04' W 051°06'0 0.0
2018-Apr-01 18:29S 00°04' W 051°06'0 0.1
2018-Apr-01 17:59S 00°04' W 051°06'1 1.5
2018-Apr-01 17:30S 00°04' W 051°05'2 4.6
2018-Apr-01 17:00S 00°02' W 051°04'4 7.6
2018-Apr-01 16:30N 00°01' W 051°01'5 9.5
2018-Apr-01 16:00N 00°05' W 050°59'510.7
2018-Apr-01 15:30N 00°09' W 050°55'611.7
2018-Apr-01 14:59N 00°10' W 050°50'612.0
2018-Apr-01 14:30N 00°12' W 050°44'711.9
2018-Apr-01 13:57N 00°15' W 050°38'  

Dump ship's entire track history